createdAt,value
2022-11-25T00:00:23.370Z,8.02
2022-11-25T00:01:45.080Z,11.71
2022-11-25T00:03:06.797Z,10.91
2022-11-25T00:04:28.185Z,10.14
2022-11-25T00:05:49.590Z,12.11
2022-11-25T00:07:11.243Z,10.27
2022-11-25T00:08:32.693Z,9.98
2022-11-25T00:09:53.830Z,9.44
2022-11-25T00:11:15.933Z,10.38
2022-11-25T00:12:37.118Z,9.50
2022-11-25T00:13:58.908Z,9.92
2022-11-25T00:15:20.553Z,9.46
2022-11-25T00:16:47.726Z,7.64
2022-11-25T00:18:05.487Z,8.44
2022-11-25T00:19:27.077Z,7.54
2022-11-25T00:20:48.718Z,7.78
2022-11-25T00:22:10.024Z,8.64
2022-11-25T00:23:33.358Z,8.18
2022-11-25T00:26:16.039Z,8.82
2022-11-25T00:27:37.497Z,8.36
2022-11-25T00:29:00.234Z,7.22
2022-11-25T00:30:21.517Z,8.09
2022-11-25T00:31:42.998Z,8.38
2022-11-25T00:33:04.571Z,8.63
2022-11-25T00:34:25.911Z,6.62
2022-11-25T00:35:47.024Z,5.64
2022-11-25T00:37:08.522Z,6.53
2022-11-25T00:38:30.316Z,6.37
2022-11-25T00:39:51.700Z,6.90
2022-11-25T00:41:13.058Z,5.96
2022-11-25T00:42:34.198Z,6.51
2022-11-25T00:43:55.910Z,6.02
2022-11-25T00:45:17.532Z,6.73
2022-11-25T00:46:38.598Z,5.81
2022-11-25T00:47:59.751Z,6.08
2022-11-25T00:49:21.326Z,7.39
2022-11-25T00:50:42.636Z,6.97
2022-11-25T00:52:04.150Z,6.98
2022-11-25T00:53:25.697Z,7.30
2022-11-25T00:54:47.168Z,7.11
2022-11-25T00:56:08.466Z,7.01
2022-11-25T00:57:29.721Z,9.07
2022-11-25T00:58:52.012Z,8.19
2022-11-25T01:00:14.238Z,8.19
2022-11-25T01:01:35.729Z,7.42
2022-11-25T01:02:57.311Z,8.54
2022-11-25T01:04:18.351Z,8.37
2022-11-25T01:05:39.457Z,7.94
2022-11-25T01:07:01.054Z,8.48
2022-11-25T01:08:22.764Z,6.91
2022-11-25T01:09:44.441Z,7.41
2022-11-25T01:11:12.708Z,6.78
2022-11-25T01:12:34.129Z,5.63
2022-11-25T01:14:00.693Z,5.32
2022-11-25T01:15:18.115Z,5.59
2022-11-25T01:16:39.680Z,6.35
2022-11-25T01:18:01.156Z,6.33
2022-11-25T01:19:23.149Z,5.31
2022-11-25T01:20:44.767Z,5.79
2022-11-25T01:22:07.248Z,5.92
2022-11-25T01:23:28.363Z,6.42
2022-11-25T01:24:49.528Z,6.43
2022-11-25T01:26:12.024Z,6.16
2022-11-25T01:27:33.044Z,7.72
2022-11-25T01:28:59.488Z,9.53
2022-11-25T01:30:21.215Z,8.44
2022-11-25T01:31:42.580Z,7.56
2022-11-25T01:33:03.746Z,9.12
2022-11-25T01:34:26.062Z,9.32
2022-11-25T01:35:47.168Z,8.20
2022-11-25T01:37:08.075Z,7.51
2022-11-25T01:38:29.473Z,7.93
2022-11-25T01:39:50.785Z,8.94
2022-11-25T01:41:13.306Z,8.88
2022-11-25T01:42:34.249Z,8.33
2022-11-25T01:45:28.795Z,9.98
2022-11-25T01:46:56.168Z,9.96
2022-11-25T01:48:32.846Z,9.92
2022-11-25T01:51:16.831Z,11.14
2022-11-25T01:52:39.952Z,10.27
2022-11-25T01:55:29.353Z,8.99
2022-11-25T01:56:54.339Z,9.83
2022-11-25T01:58:16.873Z,8.59
2022-11-25T01:59:41.512Z,9.47
2022-11-25T02:01:02.713Z,7.96
2022-11-25T02:02:24.091Z,9.84
2022-11-25T02:03:46.908Z,11.32
2022-11-25T02:05:08.971Z,10.29
2022-11-25T02:06:35.571Z,10.61
2022-11-25T02:07:56.951Z,9.93
2022-11-25T02:09:18.570Z,9.32
2022-11-25T02:10:39.927Z,9.84
2022-11-25T02:12:01.207Z,9.12
2022-11-25T02:13:23.001Z,9.79
2022-11-25T02:14:44.797Z,9.85
2022-11-25T02:16:05.882Z,10.13
2022-11-25T02:17:27.008Z,10.23
2022-11-25T02:18:49.170Z,10.12
2022-11-25T02:21:29.254Z,10.72
2022-11-25T02:23:03.458Z,10.16
2022-11-25T02:24:28.611Z,11.08
2022-11-25T02:25:49.863Z,10.12
2022-11-25T02:27:11.089Z,12.27
2022-11-25T02:28:32.618Z,11.49
2022-11-25T02:29:54.226Z,9.50
2022-11-25T02:31:19.758Z,9.91
2022-11-25T02:32:44.815Z,9.57
2022-11-25T02:34:05.797Z,10.73
2022-11-25T02:35:32.758Z,10.59
2022-11-25T02:36:53.700Z,9.56
2022-11-25T02:38:18.176Z,9.91
2022-11-25T02:39:39.748Z,9.87
2022-11-25T02:41:07.530Z,9.07
2022-11-25T02:42:28.608Z,9.37
2022-11-25T02:43:49.990Z,9.68
2022-11-25T02:45:11.501Z,9.76
2022-11-25T02:46:33.074Z,9.42
2022-11-25T02:47:54.240Z,9.52
2022-11-25T02:49:15.210Z,9.82
2022-11-25T02:50:36.511Z,11.54
2022-11-25T02:51:57.737Z,10.91
2022-11-25T02:53:19.262Z,10.89
2022-11-25T02:54:40.732Z,10.75
2022-11-25T02:56:02.134Z,10.17
2022-11-25T02:57:23.031Z,10.51
2022-11-25T02:58:44.308Z,9.69
2022-11-25T03:00:06.659Z,10.60
2022-11-25T03:01:28.096Z,11.91
2022-11-25T03:02:51.516Z,12.88
2022-11-25T03:05:33.279Z,12.89
2022-11-25T03:06:54.762Z,11.43
2022-11-25T03:08:16.311Z,14.35
2022-11-25T03:09:37.334Z,14.02
2022-11-25T03:10:58.887Z,13.63
2022-11-25T03:12:20.110Z,12.91
2022-11-25T03:13:41.118Z,12.38
2022-11-25T03:15:03.494Z,11.69
2022-11-25T03:16:24.903Z,12.06
2022-11-25T03:17:46.476Z,10.98
2022-11-25T03:19:07.985Z,12.03
2022-11-25T03:20:29.380Z,10.47
2022-11-25T03:21:50.891Z,11.33
2022-11-25T03:23:12.569Z,11.37
2022-11-25T03:24:34.352Z,12.35
2022-11-25T03:25:55.972Z,11.03
2022-11-25T03:27:17.462Z,12.46
2022-11-25T03:28:38.991Z,11.31
2022-11-25T03:30:00.611Z,11.54
2022-11-25T03:31:22.210Z,10.43
2022-11-25T03:32:43.704Z,10.19
2022-11-25T03:34:05.239Z,11.25
2022-11-25T03:35:26.798Z,11.19
2022-11-25T03:36:48.412Z,10.06
2022-11-25T03:38:09.524Z,9.82
2022-11-25T03:39:31.166Z,10.82
2022-11-25T03:40:52.265Z,10.29
2022-11-25T03:42:13.668Z,10.85
2022-11-25T03:43:35.052Z,10.96
2022-11-25T03:44:56.554Z,10.13
2022-11-25T03:46:18.181Z,11.71
2022-11-25T03:48:53.855Z,10.84
2022-11-25T03:50:15.450Z,10.66
2022-11-25T03:51:36.483Z,10.71
2022-11-25T03:52:57.535Z,10.72
2022-11-25T03:54:19.116Z,11.43
2022-11-25T03:55:40.813Z,12.37
2022-11-25T03:57:02.154Z,11.02
2022-11-25T03:58:23.498Z,11.18
2022-11-25T03:59:44.967Z,11.06
2022-11-25T04:01:06.743Z,12.56
2022-11-25T04:02:28.404Z,10.46
2022-11-25T04:03:49.851Z,10.57
2022-11-25T04:05:11.359Z,10.33
2022-11-25T04:06:33.122Z,11.43
2022-11-25T04:07:57.946Z,10.47
2022-11-25T04:10:39.216Z,10.18
2022-11-25T04:12:00.336Z,9.10
2022-11-25T04:13:21.959Z,10.83
2022-11-25T04:14:43.427Z,11.41
2022-11-25T04:16:04.723Z,9.76
2022-11-25T04:17:26.124Z,12.68
2022-11-25T04:18:47.725Z,12.18
2022-11-25T04:20:10.075Z,10.41
2022-11-25T04:21:31.390Z,12.39
2022-11-25T04:22:52.460Z,11.60
2022-11-25T04:24:13.612Z,10.89
2022-11-25T04:25:35.851Z,12.75
2022-11-25T04:26:57.440Z,10.09
2022-11-25T04:28:18.512Z,12.87
2022-11-25T04:29:40.076Z,11.40
2022-11-25T04:31:06.941Z,10.99
2022-11-25T04:32:28.500Z,10.97
2022-11-25T04:33:52.675Z,10.42
2022-11-25T04:35:13.096Z,10.73
2022-11-25T04:36:34.794Z,9.79
2022-11-25T04:37:55.975Z,11.46
2022-11-25T04:39:17.312Z,10.14
2022-11-25T04:40:38.586Z,15.12
2022-11-25T04:42:00.026Z,11.10
2022-11-25T04:43:21.650Z,11.79
2022-11-25T04:44:55.902Z,9.21
2022-11-25T04:46:13.856Z,10.33
2022-11-25T04:47:29.988Z,9.58
2022-11-25T04:48:51.083Z,11.54
2022-11-25T04:51:25.203Z,10.22
2022-11-25T04:52:46.419Z,9.31
2022-11-25T04:54:07.918Z,9.29
2022-11-25T04:55:29.371Z,7.71
2022-11-25T04:56:51.122Z,9.38
2022-11-25T04:58:12.736Z,9.07
2022-11-25T04:59:34.252Z,8.42
2022-11-25T05:00:55.967Z,9.79
2022-11-25T05:02:24.654Z,8.97
2022-11-25T05:03:53.014Z,9.95
2022-11-25T05:05:11.960Z,10.22
2022-11-25T05:06:33.548Z,9.29
2022-11-25T05:07:55.807Z,9.47
2022-11-25T05:09:19.006Z,8.50
2022-11-25T05:10:40.359Z,12.68
2022-11-25T05:12:01.685Z,12.13
2022-11-25T05:13:23.418Z,9.94
2022-11-25T05:14:44.673Z,11.37
2022-11-25T05:16:06.756Z,10.62
2022-11-25T05:17:29.208Z,11.28
2022-11-25T05:18:50.497Z,9.24
2022-11-25T05:20:12.364Z,9.29
2022-11-25T05:21:34.108Z,10.34
2022-11-25T05:22:55.851Z,10.11
2022-11-25T05:24:17.722Z,9.72
2022-11-25T05:25:39.358Z,11.59
2022-11-25T05:27:00.945Z,11.17
2022-11-25T05:28:22.275Z,9.60
2022-11-25T05:29:43.665Z,8.98
2022-11-25T05:31:05.458Z,10.07
2022-11-25T05:32:26.904Z,9.48
2022-11-25T05:33:48.791Z,10.08
2022-11-25T05:35:10.140Z,9.56
2022-11-25T05:36:31.987Z,11.13
2022-11-25T05:37:53.213Z,10.29
2022-11-25T05:39:14.285Z,9.92
2022-11-25T05:40:36.070Z,11.66
2022-11-25T05:41:57.423Z,11.88
2022-11-25T05:43:18.701Z,11.15
2022-11-25T05:44:40.366Z,10.29
2022-11-25T05:46:07.681Z,9.70
2022-11-25T05:47:29.412Z,9.94
2022-11-25T05:48:54.325Z,11.53
2022-11-25T05:50:15.775Z,10.73
2022-11-25T05:51:38.120Z,10.10
2022-11-25T05:52:59.631Z,10.62
2022-11-25T05:54:21.057Z,10.27
2022-11-25T05:55:43.264Z,10.39
2022-11-25T05:57:04.633Z,12.42
2022-11-25T05:58:30.545Z,9.44
2022-11-25T05:59:52.351Z,11.06
2022-11-25T06:01:14.739Z,13.08
2022-11-25T06:02:36.730Z,10.51
2022-11-25T06:05:11.765Z,11.97
2022-11-25T06:06:33.613Z,13.00
2022-11-25T06:08:58.589Z,14.83
2022-11-25T06:10:20.797Z,15.28
2022-11-25T06:11:42.239Z,14.66
2022-11-25T06:13:03.620Z,12.48
2022-11-25T06:14:24.806Z,19.46
2022-11-25T06:15:46.681Z,18.53
2022-11-25T06:17:08.841Z,13.46
2022-11-25T06:18:31.511Z,13.88
2022-11-25T06:19:52.994Z,17.06
2022-11-25T06:21:15.396Z,12.43
2022-11-25T06:22:36.554Z,13.08
2022-11-25T06:24:00.092Z,14.59
2022-11-25T06:25:21.480Z,14.01
2022-11-25T06:26:42.785Z,14.71
2022-11-25T06:28:12.716Z,16.31
2022-11-25T06:29:27.440Z,12.74
2022-11-25T06:30:49.234Z,13.53
2022-11-25T06:32:12.098Z,13.61
2022-11-25T06:34:54.217Z,14.87
2022-11-25T06:36:15.989Z,13.63
2022-11-25T06:37:37.540Z,11.52
2022-11-25T06:38:58.889Z,13.38
2022-11-25T06:40:20.412Z,13.38
2022-11-25T06:41:41.542Z,13.27
2022-11-25T06:43:03.797Z,12.89
2022-11-25T06:44:24.896Z,13.49
2022-11-25T06:45:47.066Z,13.85
2022-11-25T06:47:08.416Z,12.02
2022-11-25T06:48:30.076Z,15.44
2022-11-25T06:49:51.503Z,15.24
2022-11-25T06:51:13.550Z,18.42
2022-11-25T06:52:34.960Z,19.66
2022-11-25T06:53:56.316Z,19.27
2022-11-25T06:55:17.939Z,19.04
2022-11-25T06:56:39.425Z,18.13
2022-11-25T06:58:20.600Z,15.12
2022-11-25T06:59:23.514Z,15.79
2022-11-25T07:00:45.606Z,14.27
2022-11-25T07:02:08.518Z,16.09
2022-11-25T07:03:29.959Z,13.67
2022-11-25T07:04:52.091Z,13.61
2022-11-25T07:06:14.731Z,13.90
2022-11-25T07:07:36.249Z,14.18
2022-11-25T07:08:57.841Z,13.77
2022-11-25T07:10:19.331Z,11.67
2022-11-25T07:11:40.666Z,12.09
2022-11-25T07:13:02.280Z,12.19
2022-11-25T07:14:23.655Z,13.74
2022-11-25T07:15:45.097Z,17.42
2022-11-25T07:17:11.823Z,15.66
2022-11-25T07:19:54.218Z,14.69
2022-11-25T07:22:28.062Z,14.66
2022-11-25T07:23:50.074Z,16.31
2022-11-25T07:25:11.984Z,18.88
2022-11-25T07:26:36.006Z,19.78
2022-11-25T07:27:57.284Z,17.33
2022-11-25T07:29:44.270Z,15.42
2022-11-25T07:31:22.148Z,14.67
2022-11-25T07:32:10.240Z,15.21
2022-11-25T07:33:28.772Z,18.09
2022-11-25T07:34:50.231Z,20.74
2022-11-25T07:36:12.511Z,23.63
2022-11-25T07:37:33.576Z,19.43
2022-11-25T07:38:55.030Z,18.34
2022-11-25T07:40:16.604Z,18.27
2022-11-25T07:41:37.896Z,16.96
2022-11-25T07:42:59.636Z,17.18
2022-11-25T07:44:21.181Z,19.08
2022-11-25T07:45:42.562Z,17.69
2022-11-25T07:47:05.947Z,17.88
2022-11-25T07:49:48.499Z,15.78
2022-11-25T07:51:18.550Z,15.46
2022-11-25T07:52:40.224Z,14.32
2022-11-25T07:54:03.248Z,14.99
2022-11-25T07:55:24.499Z,14.26
2022-11-25T07:56:45.841Z,14.78
2022-11-25T07:58:07.783Z,14.53
2022-11-25T07:59:29.145Z,19.94
2022-11-25T08:02:00.926Z,18.63
2022-11-25T08:03:22.269Z,18.98
2022-11-25T08:04:43.625Z,18.34
2022-11-25T08:07:31.883Z,19.86
2022-11-25T08:10:18.856Z,16.97
2022-11-25T08:11:40.227Z,17.22
2022-11-25T08:13:01.344Z,20.11
2022-11-25T08:14:23.089Z,16.66
2022-11-25T08:15:46.901Z,18.48
2022-11-25T08:17:08.149Z,17.11
2022-11-25T08:18:29.623Z,21.26
2022-11-25T08:19:51.099Z,17.12
2022-11-25T08:21:15.454Z,16.65
2022-11-25T08:22:37.639Z,16.78
2022-11-25T08:23:59.115Z,21.54
2022-11-25T08:25:20.725Z,20.77
2022-11-25T08:26:43.289Z,20.20
2022-11-25T08:28:04.594Z,19.74
2022-11-25T08:29:26.167Z,18.42
2022-11-25T08:30:48.578Z,20.27
2022-11-25T08:32:11.936Z,18.86
2022-11-25T08:34:53.566Z,20.87
2022-11-25T08:36:15.698Z,20.08
2022-11-25T08:37:37.276Z,19.74
2022-11-25T08:39:00.168Z,15.82
2022-11-25T08:40:21.561Z,18.15
2022-11-25T08:41:52.176Z,17.01
2022-11-25T08:43:14.655Z,16.12
2022-11-25T08:45:48.653Z,18.09
2022-11-25T08:47:18.605Z,15.23
2022-11-25T08:48:41.081Z,16.23
2022-11-25T08:50:14.595Z,17.17
2022-11-25T08:51:37.066Z,17.43
2022-11-25T08:52:58.608Z,18.95
2022-11-25T08:54:19.682Z,21.57
2022-11-25T08:55:41.413Z,22.12
2022-11-25T08:57:03.263Z,18.59
2022-11-25T08:58:32.118Z,16.42
2022-11-25T08:59:55.007Z,14.76
2022-11-25T09:01:18.228Z,17.29
2022-11-25T09:04:00.470Z,15.47
2022-11-25T09:05:22.022Z,16.03
2022-11-25T09:06:43.639Z,18.43
2022-11-25T09:08:05.509Z,18.62
2022-11-25T09:09:26.858Z,18.18
2022-11-25T09:10:48.740Z,19.09
2022-11-25T09:12:11.274Z,17.81
2022-11-25T09:13:32.515Z,17.72
2022-11-25T09:14:55.717Z,19.08
2022-11-25T09:16:17.195Z,16.38
2022-11-25T09:17:38.282Z,14.72
2022-11-25T09:18:59.925Z,12.73
2022-11-25T09:20:22.313Z,14.00
2022-11-25T09:21:43.915Z,15.89
2022-11-25T09:23:05.559Z,15.43
2022-11-25T09:24:26.914Z,14.97
2022-11-25T09:25:57.505Z,16.53
2022-11-25T09:27:24.911Z,15.23
2022-11-25T09:28:46.435Z,17.41
2022-11-25T09:30:08.527Z,17.92
2022-11-25T09:31:29.670Z,16.27
2022-11-25T09:32:52.082Z,15.10
2022-11-25T09:34:13.771Z,15.14
2022-11-25T09:35:35.947Z,14.74
2022-11-25T09:38:09.540Z,19.95
2022-11-25T09:39:30.879Z,17.07
2022-11-25T09:41:04.896Z,18.18
2022-11-25T09:42:50.351Z,17.15
2022-11-25T09:44:27.606Z,14.32
2022-11-25T09:45:58.787Z,11.44
2022-11-25T09:47:48.982Z,12.94
2022-11-25T09:49:31.417Z,16.26
2022-11-25T09:51:18.849Z,16.88
2022-11-25T09:52:58.633Z,18.29
2022-11-25T09:54:27.130Z,16.30
2022-11-25T09:55:50.437Z,19.79
2022-11-25T09:58:39.618Z,17.65
2022-11-25T10:00:05.153Z,17.19
2022-11-25T10:01:27.561Z,19.17
2022-11-25T10:03:19.652Z,19.22
2022-11-25T10:04:46.887Z,18.76
2022-11-25T10:06:37.994Z,17.32
2022-11-25T10:08:11.079Z,19.68
2022-11-25T10:09:33.525Z,18.78
2022-11-25T10:11:03.293Z,20.22
2022-11-25T10:12:27.192Z,18.07
2022-11-25T10:13:55.773Z,18.76
2022-11-25T10:15:25.717Z,19.72
2022-11-25T10:16:51.543Z,17.01
2022-11-25T10:18:22.282Z,18.02
2022-11-25T10:20:04.941Z,17.27
2022-11-25T10:21:26.897Z,12.53
2022-11-25T10:24:03.609Z,16.86
2022-11-25T10:26:47.632Z,17.79
2022-11-25T10:28:23.149Z,16.42
2022-11-25T10:30:08.036Z,16.91
2022-11-25T10:31:34.814Z,17.04
2022-11-25T10:33:22.679Z,18.39
2022-11-25T10:36:02.821Z,18.71
2022-11-25T10:37:32.501Z,18.84
2022-11-25T10:40:17.708Z,17.83
2022-11-25T10:43:01.980Z,17.69
2022-11-25T10:44:32.548Z,20.16
2022-11-25T10:46:09.890Z,19.59
2022-11-25T10:47:36.639Z,18.04
2022-11-25T10:49:08.090Z,19.38
2022-11-25T10:51:08.351Z,19.84
2022-11-25T10:52:32.076Z,16.46
2022-11-25T10:54:22.699Z,16.39
2022-11-25T10:56:04.305Z,17.61
2022-11-25T10:57:27.825Z,19.12
2022-11-25T10:58:48.842Z,16.80
2022-11-25T11:00:33.102Z,17.94
2022-11-25T11:03:28.204Z,17.07
2022-11-25T11:04:58.913Z,19.16
2022-11-25T11:08:16.090Z,20.44
2022-11-25T11:09:41.244Z,23.83
2022-11-25T11:11:11.975Z,22.06
2022-11-25T11:12:34.187Z,20.28
2022-11-25T11:15:22.128Z,21.16
2022-11-25T11:16:46.916Z,21.85
2022-11-25T11:18:25.540Z,20.96
2022-11-25T11:20:03.160Z,19.75
2022-11-25T11:22:48.421Z,19.98
2022-11-25T11:27:23.433Z,18.58
2022-11-25T11:28:45.478Z,17.82
2022-11-25T11:30:15.891Z,17.42
2022-11-25T11:31:48.524Z,18.40
2022-11-25T11:35:04.196Z,14.34
2022-11-25T11:36:35.037Z,20.20
2022-11-25T11:39:50.938Z,15.59
2022-11-25T11:43:11.957Z,20.61
2022-11-25T11:45:10.371Z,20.18
2022-11-25T11:47:07.884Z,18.94
2022-11-25T11:48:40.800Z,18.24
2022-11-25T11:50:27.375Z,18.39
2022-11-25T11:53:31.715Z,18.88
2022-11-25T11:54:53.771Z,17.46
2022-11-25T11:58:15.228Z,15.74
2022-11-25T12:01:33.928Z,16.65
2022-11-25T12:03:22.570Z,19.83
2022-11-25T12:04:47.604Z,21.63
2022-11-25T12:06:09.303Z,19.93
2022-11-25T12:07:49.813Z,20.59
2022-11-25T12:09:16.653Z,21.01
2022-11-25T12:12:14.625Z,18.93
2022-11-25T12:15:07.523Z,20.33
2022-11-25T12:16:35.762Z,20.52
2022-11-25T12:18:00.098Z,18.71
2022-11-25T12:19:38.951Z,18.92
2022-11-25T12:21:05.304Z,16.54
2022-11-25T12:22:39.195Z,19.27
2022-11-25T12:24:23.941Z,20.46
2022-11-25T12:25:47.388Z,19.46
2022-11-25T12:27:18.224Z,23.77
2022-11-25T12:30:07.075Z,17.55
2022-11-25T12:33:18.336Z,23.63
2022-11-25T12:36:20.522Z,23.34
2022-11-25T12:37:45.086Z,25.11
2022-11-25T12:41:06.150Z,19.93
2022-11-25T12:42:27.735Z,19.14
2022-11-25T12:43:51.501Z,22.12
2022-11-25T12:46:46.078Z,19.05
2022-11-25T12:49:31.306Z,19.03
2022-11-25T12:51:00.044Z,18.76
2022-11-25T12:52:41.550Z,21.83
2022-11-25T12:54:07.157Z,20.19
2022-11-25T12:55:28.403Z,19.51
2022-11-25T12:57:09.011Z,18.37
2022-11-25T13:00:40.417Z,20.55
2022-11-25T13:02:11.539Z,18.57
2022-11-25T13:04:11.138Z,22.26
2022-11-25T13:05:47.997Z,17.97
2022-11-25T13:09:13.918Z,17.29
2022-11-25T13:10:45.583Z,20.44
2022-11-25T13:12:35.919Z,19.99
2022-11-25T13:14:07.975Z,18.86
2022-11-25T13:15:31.788Z,20.79
2022-11-25T13:16:54.661Z,19.11
2022-11-25T13:18:20.993Z,19.88
2022-11-25T13:19:42.346Z,20.46
2022-11-25T13:21:16.251Z,19.36
2022-11-25T13:22:37.916Z,19.02
2022-11-25T13:23:59.257Z,21.32
2022-11-25T13:25:26.065Z,18.15
2022-11-25T13:26:47.946Z,19.24
2022-11-25T13:28:34.369Z,18.67
2022-11-25T13:29:55.530Z,19.00
2022-11-25T13:32:37.421Z,18.81
2022-11-25T13:35:46.035Z,18.58
2022-11-25T13:37:36.567Z,19.89
2022-11-25T13:38:58.582Z,19.69
2022-11-25T13:42:22.986Z,17.83
2022-11-25T13:45:38.518Z,19.14
2022-11-25T13:47:19.815Z,17.07
2022-11-25T13:48:41.533Z,23.41
2022-11-25T13:50:12.318Z,21.26
2022-11-25T13:51:36.664Z,19.58
2022-11-25T13:53:04.242Z,19.79
2022-11-25T13:54:38.796Z,17.69
2022-11-25T13:56:26.747Z,19.49
2022-11-25T13:57:50.613Z,16.76
2022-11-25T13:59:29.632Z,17.83
2022-11-25T14:01:13.874Z,17.47
2022-11-25T14:04:06.714Z,16.59
2022-11-25T14:07:07.938Z,18.23
2022-11-25T14:08:57.358Z,18.53
2022-11-25T14:10:43.712Z,20.00
2022-11-25T14:12:24.020Z,20.43
2022-11-25T14:14:07.789Z,18.46
2022-11-25T14:17:41.671Z,18.41
2022-11-25T14:19:51.141Z,18.69
2022-11-25T14:21:02.250Z,18.21
2022-11-25T14:22:30.045Z,21.06
2022-11-25T14:24:12.825Z,21.08
2022-11-25T14:25:55.503Z,17.66
2022-11-25T14:27:22.371Z,16.54
2022-11-25T14:28:50.643Z,18.14
2022-11-25T14:30:21.815Z,19.78
2022-11-25T14:33:03.038Z,18.38
2022-11-25T14:35:56.075Z,16.89
2022-11-25T14:37:20.423Z,18.77
2022-11-25T14:40:15.224Z,21.36
2022-11-25T14:41:39.003Z,19.38
2022-11-25T14:43:05.069Z,21.00
2022-11-25T14:44:35.674Z,20.37
2022-11-25T14:46:11.495Z,20.21
2022-11-25T14:47:37.428Z,16.76
2022-11-25T14:50:33.720Z,22.53
2022-11-25T14:51:36.269Z,19.05
2022-11-25T14:52:57.338Z,17.97
2022-11-25T14:54:20.212Z,20.04
2022-11-25T14:55:42.798Z,20.69
2022-11-25T14:58:15.043Z,20.09
2022-11-25T14:59:39.742Z,20.82
2022-11-25T15:01:03.202Z,19.77
2022-11-25T15:02:32.844Z,20.76
2022-11-25T15:04:15.751Z,21.99
2022-11-25T15:05:38.030Z,20.16
2022-11-25T15:06:59.372Z,19.93
2022-11-25T15:08:20.471Z,22.11
2022-11-25T15:10:56.459Z,22.33
2022-11-25T15:12:21.652Z,21.45
2022-11-25T15:13:57.929Z,21.29
2022-11-25T15:15:19.296Z,21.08
2022-11-25T15:16:41.249Z,22.61
2022-11-25T15:18:06.235Z,23.60
2022-11-25T15:20:48.487Z,21.47
2022-11-25T15:22:28.477Z,22.36
2022-11-25T15:23:36.662Z,21.97
2022-11-25T15:25:06.606Z,19.72
2022-11-25T15:26:29.808Z,20.93
2022-11-25T15:27:51.566Z,21.14
2022-11-25T15:29:13.099Z,21.08
2022-11-25T15:30:34.926Z,21.01
2022-11-25T15:31:56.664Z,21.88
2022-11-25T15:33:18.397Z,22.32
2022-11-25T15:34:41.515Z,17.79
2022-11-25T15:36:03.451Z,22.69
2022-11-25T15:37:24.748Z,20.46
2022-11-25T15:38:46.296Z,24.63
2022-11-25T15:40:31.533Z,23.44
2022-11-25T15:42:21.444Z,19.58
2022-11-25T15:45:08.747Z,22.65
2022-11-25T15:46:31.530Z,21.07
2022-11-25T15:47:52.951Z,19.75
2022-11-25T15:49:14.427Z,21.41
2022-11-25T15:50:36.011Z,23.16
2022-11-25T15:53:31.685Z,24.30
2022-11-25T15:54:50.239Z,24.86
2022-11-25T15:56:11.425Z,25.44
2022-11-25T15:57:36.055Z,22.87
2022-11-25T15:59:01.498Z,26.04
2022-11-25T16:01:34.109Z,20.27
2022-11-25T16:02:56.021Z,26.47
2022-11-25T16:04:20.698Z,26.66
2022-11-25T16:05:45.503Z,28.38
2022-11-25T16:07:10.639Z,27.96
2022-11-25T16:08:36.415Z,25.99
2022-11-25T16:09:58.083Z,27.98
2022-11-25T16:11:19.762Z,27.01
2022-11-25T16:12:41.148Z,25.89
2022-11-25T16:14:26.139Z,27.13
2022-11-25T16:15:59.153Z,24.51
2022-11-25T16:17:20.283Z,28.11
2022-11-25T16:19:03.337Z,29.34
2022-11-25T16:20:26.221Z,26.27
2022-11-25T16:23:08.451Z,27.44
2022-11-25T16:24:33.232Z,25.72
2022-11-25T16:25:59.911Z,27.47
2022-11-25T16:27:22.985Z,28.87
2022-11-25T16:28:55.157Z,27.09
2022-11-25T16:30:17.961Z,27.08
2022-11-25T16:31:40.486Z,28.95
2022-11-25T16:33:01.730Z,21.13
2022-11-25T16:34:23.312Z,27.74
2022-11-25T16:35:44.720Z,27.45
2022-11-25T16:37:06.195Z,31.76
2022-11-25T16:38:29.476Z,30.09
2022-11-25T16:39:51.088Z,31.50
2022-11-25T16:42:35.017Z,30.12
2022-11-25T16:44:00.868Z,31.43
2022-11-25T16:45:23.507Z,31.15
2022-11-25T16:46:45.042Z,31.06
2022-11-25T16:48:14.803Z,32.38
2022-11-25T16:49:36.478Z,32.39
2022-11-25T16:50:58.181Z,33.15
2022-11-25T16:52:19.674Z,31.30
2022-11-25T16:53:41.128Z,30.93
2022-11-25T16:55:02.663Z,30.44
2022-11-25T16:56:27.470Z,32.40
2022-11-25T16:57:49.746Z,32.32
2022-11-25T16:59:28.720Z,33.18
2022-11-25T17:02:19.901Z,31.69
2022-11-25T17:03:42.497Z,31.56
2022-11-25T17:06:28.889Z,27.74
2022-11-25T17:07:52.374Z,34.23
2022-11-25T17:09:13.940Z,29.88
2022-11-25T17:10:36.417Z,34.05
2022-11-25T17:11:57.793Z,31.03
2022-11-25T17:13:21.544Z,29.23
2022-11-25T17:14:43.233Z,29.85
2022-11-25T17:16:08.304Z,29.61
2022-11-25T17:17:29.901Z,26.50
2022-11-25T17:18:52.137Z,29.48
2022-11-25T17:20:17.464Z,26.38
2022-11-25T17:21:38.797Z,31.30
2022-11-25T17:23:00.368Z,29.58
2022-11-25T17:24:23.102Z,31.07
2022-11-25T17:25:49.000Z,29.26
2022-11-25T17:27:17.110Z,29.12
2022-11-25T17:28:38.367Z,28.60
2022-11-25T17:30:00.958Z,30.80
2022-11-25T17:31:25.855Z,31.52
2022-11-25T17:32:50.641Z,31.32
2022-11-25T17:35:36.971Z,31.71
2022-11-25T17:36:58.488Z,31.35
2022-11-25T17:38:20.039Z,30.71
2022-11-25T17:39:41.492Z,31.12
2022-11-25T17:41:02.901Z,31.42
2022-11-25T17:42:28.545Z,31.06
2022-11-25T17:43:50.413Z,29.14
2022-11-25T17:45:12.956Z,31.70
2022-11-25T17:46:34.056Z,29.93
2022-11-25T17:47:55.367Z,33.44
2022-11-25T17:49:16.919Z,33.28
2022-11-25T17:50:38.069Z,30.93
2022-11-25T17:51:59.216Z,30.64
2022-11-25T17:53:20.915Z,27.70
2022-11-25T17:54:43.225Z,31.08
2022-11-25T17:56:25.504Z,30.54
2022-11-25T17:57:47.952Z,26.52
2022-11-25T17:59:12.326Z,30.52
2022-11-25T18:00:33.774Z,29.98
2022-11-25T18:01:56.418Z,26.84
2022-11-25T18:03:19.710Z,27.91
2022-11-25T18:04:41.707Z,28.24
2022-11-25T18:06:03.600Z,26.41
2022-11-25T18:07:26.840Z,26.00
2022-11-25T18:08:48.337Z,23.11
2022-11-25T18:10:11.216Z,27.52
2022-11-25T18:11:32.915Z,23.14
2022-11-25T18:12:55.110Z,23.37
2022-11-25T18:14:28.600Z,25.60
2022-11-25T18:15:49.795Z,21.31
2022-11-25T18:18:24.671Z,19.93
2022-11-25T18:19:50.031Z,21.43
2022-11-25T18:21:09.847Z,20.61
2022-11-25T18:22:30.895Z,20.37
2022-11-25T18:23:53.362Z,20.45
2022-11-25T18:25:16.037Z,20.78
2022-11-25T18:26:46.415Z,26.07
2022-11-25T18:28:09.488Z,26.62
2022-11-25T18:30:52.038Z,21.41
2022-11-25T18:32:13.491Z,21.44
2022-11-25T18:33:34.952Z,20.08
2022-11-25T18:34:56.825Z,16.78
2022-11-25T18:36:18.448Z,22.41
2022-11-25T18:37:40.497Z,19.95
2022-11-25T18:39:01.881Z,20.07
2022-11-25T18:40:24.249Z,22.01
2022-11-25T18:41:45.926Z,18.57
2022-11-25T18:44:26.351Z,20.91
2022-11-25T18:45:47.936Z,18.61
2022-11-25T18:47:12.101Z,17.61
2022-11-25T18:48:33.494Z,16.97
2022-11-25T18:49:56.391Z,21.06
2022-11-25T18:52:38.940Z,18.53
2022-11-25T18:54:00.018Z,21.01
2022-11-25T18:55:22.851Z,21.69
2022-11-25T18:56:44.071Z,17.27
2022-11-25T18:59:29.479Z,20.15
2022-11-25T19:00:50.841Z,19.97
2022-11-25T19:02:14.849Z,19.43
2022-11-25T19:03:36.439Z,19.55
2022-11-25T19:04:59.126Z,19.55
2022-11-25T19:06:21.086Z,20.47
2022-11-25T19:07:44.330Z,20.00
2022-11-25T19:09:05.758Z,21.67
2022-11-25T19:10:29.062Z,22.27
2022-11-25T19:14:32.576Z,20.88
2022-11-25T19:15:55.492Z,20.43
2022-11-25T19:18:43.231Z,20.08
2022-11-25T19:20:17.396Z,19.65
2022-11-25T19:21:38.595Z,22.43
2022-11-25T19:23:04.055Z,21.88
2022-11-25T19:24:27.632Z,22.47
2022-11-25T19:25:49.475Z,20.49
2022-11-25T19:27:23.588Z,21.16
2022-11-25T19:28:46.037Z,19.28
2022-11-25T19:30:17.731Z,20.82
2022-11-25T19:31:39.163Z,21.73
2022-11-25T19:33:00.985Z,22.56
2022-11-25T19:35:41.904Z,18.64
2022-11-25T19:37:03.879Z,21.98
2022-11-25T19:38:25.672Z,20.61
2022-11-25T19:41:02.797Z,27.43
2022-11-25T19:42:26.333Z,19.71
2022-11-25T19:43:47.648Z,19.51
2022-11-25T19:45:11.610Z,20.53
2022-11-25T19:46:46.302Z,21.37
2022-11-25T19:47:56.067Z,20.04
2022-11-25T19:49:19.051Z,20.37
2022-11-25T19:50:41.332Z,21.04
2022-11-25T19:52:02.933Z,17.79
2022-11-25T19:53:30.203Z,21.88
2022-11-25T19:54:48.790Z,19.78
2022-11-25T19:56:14.363Z,19.38
2022-11-25T19:57:35.894Z,20.15
2022-11-25T19:58:57.623Z,19.48
2022-11-25T20:00:19.956Z,23.40
2022-11-25T20:01:42.731Z,18.77
2022-11-25T20:03:03.877Z,21.78
2022-11-25T20:04:32.826Z,21.43
2022-11-25T20:05:54.008Z,20.94
2022-11-25T20:07:17.567Z,20.98
2022-11-25T20:08:39.064Z,19.06
2022-11-25T20:11:16.812Z,19.33
2022-11-25T20:12:38.517Z,20.09
2022-11-25T20:13:59.771Z,18.18